sensor_id;sensor_type;location;lat;lon;timestamp;temperature;humidity
7004;DHT22;3542;48.812;9.146;2023-02-01T00:01:28;4.20;99.90
7004;DHT22;3542;48.812;9.146;2023-02-01T00:03:53;4.20;99.90
7004;DHT22;3542;48.812;9.146;2023-02-01T00:06:18;4.20;99.90
7004;DHT22;3542;48.812;9.146;2023-02-01T00:08:44;4.20;99.90
7004;DHT22;3542;48.812;9.146;2023-02-01T00:11:11;4.10;99.90
7004;DHT22;3542;48.812;9.146;2023-02-01T00:13:39;4.20;99.90
7004;DHT22;3542;48.812;9.146;2023-02-01T00:16:11;4.20;99.90
7004;DHT22;3542;48.812;9.146;2023-02-01T00:18:38;4.30;99.90
7004;DHT22;3542;48.812;9.146;2023-02-01T00:21:04;4.30;99.90
7004;DHT22;3542;48.812;9.146;2023-02-01T00:23:34;4.30;99.90
7004;DHT22;3542;48.812;9.146;2023-02-01T00:26:01;4.30;99.90
7004;DHT22;3542;48.812;9.146;2023-02-01T00:28:27;4.30;99.90
7004;DHT22;3542;48.812;9.146;2023-02-01T00:31:00;4.30;99.90
7004;DHT22;3542;48.812;9.146;2023-02-01T00:33:26;4.30;99.90
7004;DHT22;3542;48.812;9.146;2023-02-01T00:35:56;4.30;99.90
7004;DHT22;3542;48.812;9.146;2023-02-01T00:38:22;4.30;99.90
7004;DHT22;3542;48.812;9.146;2023-02-01T00:40:48;4.30;99.90
7004;DHT22;3542;48.812;9.146;2023-02-01T00:43:13;4.30;99.90
7004;DHT22;3542;48.812;9.146;2023-02-01T00:45:39;4.30;99.90
7004;DHT22;3542;48.812;9.146;2023-02-01T00:48:04;4.30;99.90
7004;DHT22;3542;48.812;9.146;2023-02-01T00:50:30;4.30;99.90
7004;DHT22;3542;48.812;9.146;2023-02-01T00:52:55;4.30;99.90
7004;DHT22;3542;48.812;9.146;2023-02-01T00:55:21;4.30;99.90
7004;DHT22;3542;48.812;9.146;2023-02-01T00:57:46;4.30;99.90
7004;DHT22;3542;48.812;9.146;2023-02-01T01:00:12;4.40;99.90
7004;DHT22;3542;48.812;9.146;2023-02-01T01:02:38;4.40;99.90
7004;DHT22;3542;48.812;9.146;2023-02-01T01:05:03;4.40;99.90
7004;DHT22;3542;48.812;9.146;2023-02-01T01:07:29;4.40;99.90
7004;DHT22;3542;48.812;9.146;2023-02-01T01:09:55;4.40;99.90
7004;DHT22;3542;48.812;9.146;2023-02-01T01:12:20;4.40;99.90
7004;DHT22;3542;48.812;9.146;2023-02-01T01:14:46;4.50;99.90
7004;DHT22;3542;48.812;9.146;2023-02-01T01:17:11;4.40;99.90
7004;DHT22;3542;48.812;9.146;2023-02-01T01:19:37;4.40;99.90
7004;DHT22;3542;48.812;9.146;2023-02-01T01:22:02;4.40;99.90
7004;DHT22;3542;48.812;9.146;2023-02-01T01:24:28;4.40;99.90
7004;DHT22;3542;48.812;9.146;2023-02-01T01:26:53;4.40;99.90
7004;DHT22;3542;48.812;9.146;2023-02-01T01:29:19;4.50;99.90
7004;DHT22;3542;48.812;9.146;2023-02-01T01:31:44;4.50;99.90
7004;DHT22;3542;48.812;9.146;2023-02-01T01:34:10;4.50;99.90
7004;DHT22;3542;48.812;9.146;2023-02-01T01:36:35;4.50;99.90
7004;DHT22;3542;48.812;9.146;2023-02-01T01:39:01;4.50;99.90
7004;DHT22;3542;48.812;9.146;2023-02-01T01:41:30;4.50;99.90
7004;DHT22;3542;48.812;9.146;2023-02-01T01:43:58;4.50;99.90
7004;DHT22;3542;48.812;9.146;2023-02-01T01:46:26;4.50;99.90
7004;DHT22;3542;48.812;9.146;2023-02-01T01:49:01;4.50;99.90
7004;DHT22;3542;48.812;9.146;2023-02-01T01:51:30;4.50;99.90
7004;DHT22;3542;48.812;9.146;2023-02-01T01:54:18;4.50;99.90
7004;DHT22;3542;48.812;9.146;2023-02-01T01:56:51;4.50;99.90
7004;DHT22;3542;48.812;9.146;2023-02-01T01:59:17;4.60;99.90
7004;DHT22;3542;48.812;9.146;2023-02-01T03:32:20;4.50;99.90
7004;DHT22;3542;48.812;9.146;2023-02-01T03:34:47;4.50;99.90
7004;DHT22;3542;48.812;9.146;2023-02-01T03:37:19;4.50;99.90
7004;DHT22;3542;48.812;9.146;2023-02-01T03:40:19;4.50;99.90
7004;DHT22;3542;48.812;9.146;2023-02-01T03:42:49;4.50;99.90
7004;DHT22;3542;48.812;9.146;2023-02-01T03:45:31;4.40;99.90
7004;DHT22;3542;48.812;9.146;2023-02-01T03:48:00;4.50;99.90
7004;DHT22;3542;48.812;9.146;2023-02-01T03:50:28;4.50;99.90
7004;DHT22;3542;48.812;9.146;2023-02-01T03:52:59;4.40;99.90
7004;DHT22;3542;48.812;9.146;2023-02-01T03:55:27;4.50;99.90
7004;DHT22;3542;48.812;9.146;2023-02-01T03:57:58;4.50;99.90
7004;DHT22;3542;48.812;9.146;2023-02-01T04:00:26;4.50;99.90
7004;DHT22;3542;48.812;9.146;2023-02-01T04:02:53;4.50;99.90
7004;DHT22;3542;48.812;9.146;2023-02-01T04:05:19;4.50;99.90
7004;DHT22;3542;48.812;9.146;2023-02-01T04:07:45;4.50;99.90
7004;DHT22;3542;48.812;9.146;2023-02-01T04:10:11;4.50;99.90
7004;DHT22;3542;48.812;9.146;2023-02-01T04:12:37;4.60;99.90
7004;DHT22;3542;48.812;9.146;2023-02-01T04:15:03;4.50;99.90
7004;DHT22;3542;48.812;9.146;2023-02-01T04:17:29;4.60;99.90
7004;DHT22;3542;48.812;9.146;2023-02-01T04:19:55;4.60;99.90
7004;DHT22;3542;48.812;9.146;2023-02-01T04:22:21;4.60;99.90
7004;DHT22;3542;48.812;9.146;2023-02-01T04:24:46;4.60;99.90
7004;DHT22;3542;48.812;9.146;2023-02-01T04:27:12;4.60;99.90
7004;DHT22;3542;48.812;9.146;2023-02-01T04:29:37;4.60;99.90
7004;DHT22;3542;48.812;9.146;2023-02-01T04:32:03;4.60;99.90
7004;DHT22;3542;48.812;9.146;2023-02-01T04:34:29;4.60;99.90
7004;DHT22;3542;48.812;9.146;2023-02-01T04:36:54;4.60;99.90
7004;DHT22;3542;48.812;9.146;2023-02-01T04:39:20;4.60;99.90
7004;DHT22;3542;48.812;9.146;2023-02-01T04:41:45;4.70;99.90
7004;DHT22;3542;48.812;9.146;2023-02-01T04:44:15;4.60;99.90
7004;DHT22;3542;48.812;9.146;2023-02-01T04:46:42;4.70;99.90
7004;DHT22;3542;48.812;9.146;2023-02-01T04:49:12;4.70;99.90
7004;DHT22;3542;48.812;9.146;2023-02-01T04:51:37;4.70;99.90
7004;DHT22;3542;48.812;9.146;2023-02-01T04:54:03;4.70;99.90
7004;DHT22;3542;48.812;9.146;2023-02-01T04:56:29;4.70;99.90
7004;DHT22;3542;48.812;9.146;2023-02-01T04:58:55;4.70;99.90
7004;DHT22;3542;48.812;9.146;2023-02-01T05:01:21;4.70;99.90
7004;DHT22;3542;48.812;9.146;2023-02-01T05:03:47;4.80;99.90
7004;DHT22;3542;48.812;9.146;2023-02-01T05:06:12;4.80;99.90
7004;DHT22;3542;48.812;9.146;2023-02-01T05:08:38;4.80;99.90
7004;DHT22;3542;48.812;9.146;2023-02-01T05:11:03;4.80;99.90
7004;DHT22;3542;48.812;9.146;2023-02-01T05:13:29;4.90;99.90
7004;DHT22;3542;48.812;9.146;2023-02-01T05:16:13;4.90;99.90
7004;DHT22;3542;48.812;9.146;2023-02-01T05:18:39;4.90;99.90
7004;DHT22;3542;48.812;9.146;2023-02-01T05:21:04;4.90;99.90
7004;DHT22;3542;48.812;9.146;2023-02-01T05:23:30;4.90;99.90
7004;DHT22;3542;48.812;9.146;2023-02-01T05:25:59;4.90;99.90
7004;DHT22;3542;48.812;9.146;2023-02-01T05:28:26;4.90;99.90
7004;DHT22;3542;48.812;9.146;2023-02-01T05:30:52;4.90;99.90
7004;DHT22;3542;48.812;9.146;2023-02-01T05:33:17;5.00;99.90
7004;DHT22;3542;48.812;9.146;2023-02-01T05:35:43;5.00;99.90
7004;DHT22;3542;48.812;9.146;2023-02-01T05:38:08;5.00;99.90
7004;DHT22;3542;48.812;9.146;2023-02-01T05:40:34;5.00;99.90
7004;DHT22;3542;48.812;9.146;2023-02-01T05:42:59;5.00;99.90
7004;DHT22;3542;48.812;9.146;2023-02-01T05:45:25;5.10;99.90
7004;DHT22;3542;48.812;9.146;2023-02-01T05:47:50;5.10;99.90
7004;DHT22;3542;48.812;9.146;2023-02-01T05:50:16;5.10;99.90
7004;DHT22;3542;48.812;9.146;2023-02-01T05:52:42;5.10;99.90
7004;DHT22;3542;48.812;9.146;2023-02-01T05:55:08;5.10;99.90
7004;DHT22;3542;48.812;9.146;2023-02-01T05:57:33;5.10;99.90
7004;DHT22;3542;48.812;9.146;2023-02-01T05:59:59;5.10;99.90
7004;DHT22;3542;48.812;9.146;2023-02-01T06:02:24;5.00;99.90
7004;DHT22;3542;48.812;9.146;2023-02-01T06:04:50;5.00;99.90
7004;DHT22;3542;48.812;9.146;2023-02-01T06:07:16;4.90;99.90
7004;DHT22;3542;48.812;9.146;2023-02-01T06:09:42;4.90;99.90
7004;DHT22;3542;48.812;9.146;2023-02-01T06:12:08;4.80;99.90
7004;DHT22;3542;48.812;9.146;2023-02-01T06:14:33;4.80;99.90
7004;DHT22;3542;48.812;9.146;2023-02-01T06:16:59;4.80;99.90
7004;DHT22;3542;48.812;9.146;2023-02-01T06:19:24;4.80;99.90
7004;DHT22;3542;48.812;9.146;2023-02-01T06:21:50;4.90;99.90
7004;DHT22;3542;48.812;9.146;2023-02-01T06:24:15;4.90;99.90
7004;DHT22;3542;48.812;9.146;2023-02-01T06:26:41;4.90;99.90
7004;DHT22;3542;48.812;9.146;2023-02-01T06:29:09;4.90;99.90
7004;DHT22;3542;48.812;9.146;2023-02-01T06:31:35;5.00;99.90
7004;DHT22;3542;48.812;9.146;2023-02-01T06:34:01;5.00;99.90
7004;DHT22;3542;48.812;9.146;2023-02-01T06:36:28;5.00;99.90
7004;DHT22;3542;48.812;9.146;2023-02-01T06:38:54;5.00;99.90
7004;DHT22;3542;48.812;9.146;2023-02-01T06:41:22;5.00;99.90
7004;DHT22;3542;48.812;9.146;2023-02-01T06:43:47;5.10;99.90
7004;DHT22;3542;48.812;9.146;2023-02-01T06:46:13;5.10;99.90
7004;DHT22;3542;48.812;9.146;2023-02-01T06:48:39;5.20;99.90
7004;DHT22;3542;48.812;9.146;2023-02-01T06:51:05;5.30;99.90
7004;DHT22;3542;48.812;9.146;2023-02-01T06:53:30;5.30;99.90
7004;DHT22;3542;48.812;9.146;2023-02-01T06:55:58;5.30;99.90
7004;DHT22;3542;48.812;9.146;2023-02-01T06:58:27;5.30;99.90
7004;DHT22;3542;48.812;9.146;2023-02-01T07:00:53;5.40;99.90
7004;DHT22;3542;48.812;9.146;2023-02-01T07:03:19;5.40;99.90
7004;DHT22;3542;48.812;9.146;2023-02-01T07:05:44;5.50;99.90
7004;DHT22;3542;48.812;9.146;2023-02-01T07:08:10;5.50;99.90
7004;DHT22;3542;48.812;9.146;2023-02-01T07:10:35;5.60;99.90
7004;DHT22;3542;48.812;9.146;2023-02-01T07:13:01;5.60;99.90
7004;DHT22;3542;48.812;9.146;2023-02-01T07:15:26;5.60;99.90
7004;DHT22;3542;48.812;9.146;2023-02-01T07:17:54;5.60;99.90
7004;DHT22;3542;48.812;9.146;2023-02-01T07:20:20;5.60;99.90
7004;DHT22;3542;48.812;9.146;2023-02-01T07:22:46;5.60;99.90
7004;DHT22;3542;48.812;9.146;2023-02-01T07:25:11;5.60;99.90
7004;DHT22;3542;48.812;9.146;2023-02-01T07:27:37;5.70;99.90
7004;DHT22;3542;48.812;9.146;2023-02-01T07:30:04;5.70;99.90
7004;DHT22;3542;48.812;9.146;2023-02-01T07:32:30;5.60;99.90
7004;DHT22;3542;48.812;9.146;2023-02-01T07:34:56;5.70;99.90
7004;DHT22;3542;48.812;9.146;2023-02-01T07:37:22;5.70;99.90
7004;DHT22;3542;48.812;9.146;2023-02-01T07:39:50;5.70;99.90
7004;DHT22;3542;48.812;9.146;2023-02-01T07:42:16;5.70;99.90
7004;DHT22;3542;48.812;9.146;2023-02-01T07:44:41;5.80;99.90
7004;DHT22;3542;48.812;9.146;2023-02-01T07:47:07;5.80;99.90
7004;DHT22;3542;48.812;9.146;2023-02-01T07:49:32;5.80;99.90
7004;DHT22;3542;48.812;9.146;2023-02-01T07:51:57;5.90;99.90
7004;DHT22;3542;48.812;9.146;2023-02-01T07:54:23;5.90;99.90
7004;DHT22;3542;48.812;9.146;2023-02-01T07:56:49;6.00;99.90
7004;DHT22;3542;48.812;9.146;2023-02-01T07:59:14;6.00;99.90
7004;DHT22;3542;48.812;9.146;2023-02-01T08:01:41;6.00;99.90
7004;DHT22;3542;48.812;9.146;2023-02-01T08:04:10;6.00;99.90
7004;DHT22;3542;48.812;9.146;2023-02-01T08:06:37;5.90;99.90
7004;DHT22;3542;48.812;9.146;2023-02-01T08:09:03;6.00;99.90
7004;DHT22;3542;48.812;9.146;2023-02-01T08:11:29;6.00;99.90
7004;DHT22;3542;48.812;9.146;2023-02-01T08:13:55;6.10;99.90
7004;DHT22;3542;48.812;9.146;2023-02-01T08:16:23;6.10;99.90
7004;DHT22;3542;48.812;9.146;2023-02-01T08:18:49;6.10;99.90
7004;DHT22;3542;48.812;9.146;2023-02-01T08:21:17;6.10;99.90
7004;DHT22;3542;48.812;9.146;2023-02-01T08:23:44;6.10;99.90
7004;DHT22;3542;48.812;9.146;2023-02-01T08:26:15;6.20;99.90
7004;DHT22;3542;48.812;9.146;2023-02-01T08:28:43;6.20;99.90
7004;DHT22;3542;48.812;9.146;2023-02-01T08:31:14;6.30;99.90
7004;DHT22;3542;48.812;9.146;2023-02-01T08:33:40;6.30;99.90
7004;DHT22;3542;48.812;9.146;2023-02-01T08:36:08;6.40;99.90
7004;DHT22;3542;48.812;9.146;2023-02-01T08:38:38;6.50;99.90
7004;DHT22;3542;48.812;9.146;2023-02-01T08:41:13;6.60;99.90
7004;DHT22;3542;48.812;9.146;2023-02-01T08:43:39;6.60;99.90
7004;DHT22;3542;48.812;9.146;2023-02-01T08:46:05;6.70;99.90
7004;DHT22;3542;48.812;9.146;2023-02-01T08:48:31;6.70;99.90
7004;DHT22;3542;48.812;9.146;2023-02-01T08:51:00;6.80;99.90
7004;DHT22;3542;48.812;9.146;2023-02-01T08:53:26;6.90;99.90
7004;DHT22;3542;48.812;9.146;2023-02-01T08:55:51;6.80;99.90
7004;DHT22;3542;48.812;9.146;2023-02-01T08:58:17;6.80;99.90
7004;DHT22;3542;48.812;9.146;2023-02-01T09:00:43;6.80;99.90
7004;DHT22;3542;48.812;9.146;2023-02-01T09:03:11;6.70;99.90
7004;DHT22;3542;48.812;9.146;2023-02-01T09:05:37;6.70;99.90
7004;DHT22;3542;48.812;9.146;2023-02-01T09:08:02;6.70;99.90
7004;DHT22;3542;48.812;9.146;2023-02-01T09:10:28;6.60;99.90
7004;DHT22;3542;48.812;9.146;2023-02-01T09:12:53;6.60;99.90
7004;DHT22;3542;48.812;9.146;2023-02-01T09:15:19;6.50;99.90
7004;DHT22;3542;48.812;9.146;2023-02-01T09:17:44;6.50;99.90
7004;DHT22;3542;48.812;9.146;2023-02-01T09:20:11;6.50;99.90
7004;DHT22;3542;48.812;9.146;2023-02-01T09:22:37;6.50;99.90
7004;DHT22;3542;48.812;9.146;2023-02-01T09:25:02;6.40;99.90
7004;DHT22;3542;48.812;9.146;2023-02-01T09:27:28;6.40;99.90
7004;DHT22;3542;48.812;9.146;2023-02-01T09:29:54;6.50;99.90
7004;DHT22;3542;48.812;9.146;2023-02-01T09:32:23;6.60;99.90
7004;DHT22;3542;48.812;9.146;2023-02-01T09:34:49;6.70;99.90
7004;DHT22;3542;48.812;9.146;2023-02-01T09:37:15;6.70;99.90
7004;DHT22;3542;48.812;9.146;2023-02-01T09:39:41;6.80;99.90
7004;DHT22;3542;48.812;9.146;2023-02-01T09:42:31;6.80;99.90
7004;DHT22;3542;48.812;9.146;2023-02-01T09:45:30;6.90;99.90
7004;DHT22;3542;48.812;9.146;2023-02-01T09:48:01;6.80;99.90
7004;DHT22;3542;48.812;9.146;2023-02-01T09:50:36;6.90;99.90
7004;DHT22;3542;48.812;9.146;2023-02-01T09:53:15;6.90;99.90
7004;DHT22;3542;48.812;9.146;2023-02-01T09:55:48;6.90;99.90
7004;DHT22;3542;48.812;9.146;2023-02-01T09:58:22;6.90;99.90
7004;DHT22;3542;48.812;9.146;2023-02-01T10:00:53;6.90;99.90
7004;DHT22;3542;48.812;9.146;2023-02-01T10:03:20;7.00;99.90
7004;DHT22;3542;48.812;9.146;2023-02-01T10:20:03;7.00;99.90
7004;DHT22;3542;48.812;9.146;2023-02-01T10:22:43;7.10;99.90
7004;DHT22;3542;48.812;9.146;2023-02-01T10:25:28;7.10;99.90
7004;DHT22;3542;48.812;9.146;2023-02-01T10:27:59;7.20;99.90
7004;DHT22;3542;48.812;9.146;2023-02-01T10:30:31;7.30;99.90
7004;DHT22;3542;48.812;9.146;2023-02-01T10:33:23;7.40;99.90
7004;DHT22;3542;48.812;9.146;2023-02-01T10:35:55;7.40;99.90
7004;DHT22;3542;48.812;9.146;2023-02-01T10:38:29;7.30;99.90
7004;DHT22;3542;48.812;9.146;2023-02-01T10:41:00;7.30;99.90
7004;DHT22;3542;48.812;9.146;2023-02-01T10:43:27;7.20;99.90
7004;DHT22;3542;48.812;9.146;2023-02-01T10:45:52;7.10;99.90
7004;DHT22;3542;48.812;9.146;2023-02-01T10:48:18;7.10;99.90
7004;DHT22;3542;48.812;9.146;2023-02-01T10:51:12;7.20;99.90
7004;DHT22;3542;48.812;9.146;2023-02-01T10:53:50;7.30;99.90
7004;DHT22;3542;48.812;9.146;2023-02-01T10:56:26;7.40;99.90
7004;DHT22;3542;48.812;9.146;2023-02-01T10:59:03;7.30;99.90
7004;DHT22;3542;48.812;9.146;2023-02-01T11:01:40;7.30;99.90
7004;DHT22;3542;48.812;9.146;2023-02-01T11:04:13;7.30;99.90
7004;DHT22;3542;48.812;9.146;2023-02-01T11:06:40;7.20;99.90
7004;DHT22;3542;48.812;9.146;2023-02-01T11:12:01;7.20;99.90
7004;DHT22;3542;48.812;9.146;2023-02-01T11:14:34;7.20;99.90
7004;DHT22;3542;48.812;9.146;2023-02-01T11:17:23;7.10;99.90
7004;DHT22;3542;48.812;9.146;2023-02-01T11:20:02;7.10;99.90
7004;DHT22;3542;48.812;9.146;2023-02-01T11:22:28;7.10;99.90
7004;DHT22;3542;48.812;9.146;2023-02-01T11:24:55;6.90;99.90
7004;DHT22;3542;48.812;9.146;2023-02-01T11:27:22;6.90;99.90
7004;DHT22;3542;48.812;9.146;2023-02-01T11:29:54;6.90;99.90
7004;DHT22;3542;48.812;9.146;2023-02-01T11:32:23;6.90;99.90
7004;DHT22;3542;48.812;9.146;2023-02-01T11:34:53;6.80;99.90
7004;DHT22;3542;48.812;9.146;2023-02-01T11:37:27;6.80;99.90
7004;DHT22;3542;48.812;9.146;2023-02-01T11:42:20;6.90;99.90
7004;DHT22;3542;48.812;9.146;2023-02-01T11:44:47;6.90;99.90
7004;DHT22;3542;48.812;9.146;2023-02-01T11:47:24;6.90;99.90
7004;DHT22;3542;48.812;9.146;2023-02-01T11:49:52;7.00;99.90
7004;DHT22;3542;48.812;9.146;2023-02-01T12:06:24;7.40;99.90
7004;DHT22;3542;48.812;9.146;2023-02-01T12:20:06;7.00;99.90
7004;DHT22;3542;48.812;9.146;2023-02-01T12:33:47;7.00;99.90
7004;DHT22;3542;48.812;9.146;2023-02-01T12:36:46;6.90;99.90
7004;DHT22;3542;48.812;9.146;2023-02-01T12:39:46;6.80;99.90
7004;DHT22;3542;48.812;9.146;2023-02-01T12:42:26;6.80;99.90
7004;DHT22;3542;48.812;9.146;2023-02-01T12:44:59;6.80;99.90
7004;DHT22;3542;48.812;9.146;2023-02-01T12:47:41;6.70;99.90
7004;DHT22;3542;48.812;9.146;2023-02-01T12:50:34;6.80;99.90
7004;DHT22;3542;48.812;9.146;2023-02-01T12:53:27;6.80;99.90
7004;DHT22;3542;48.812;9.146;2023-02-01T12:55:55;6.80;99.90
7004;DHT22;3542;48.812;9.146;2023-02-01T12:58:41;6.80;99.90
7004;DHT22;3542;48.812;9.146;2023-02-01T13:01:42;6.90;99.90
7004;DHT22;3542;48.812;9.146;2023-02-01T13:04:20;6.70;99.90
7004;DHT22;3542;48.812;9.146;2023-02-01T13:07:09;6.60;99.90
7004;DHT22;3542;48.812;9.146;2023-02-01T13:09:56;6.50;99.90
7004;DHT22;3542;48.812;9.146;2023-02-01T13:12:36;6.50;99.90
7004;DHT22;3542;48.812;9.146;2023-02-01T13:15:14;6.50;99.90
7004;DHT22;3542;48.812;9.146;2023-02-01T13:17:42;6.40;99.90
7004;DHT22;3542;48.812;9.146;2023-02-01T13:20:54;6.40;99.90
7004;DHT22;3542;48.812;9.146;2023-02-01T13:23:33;6.50;99.90
7004;DHT22;3542;48.812;9.146;2023-02-01T13:25:59;6.50;99.90
7004;DHT22;3542;48.812;9.146;2023-02-01T13:40:16;6.70;99.90
7004;DHT22;3542;48.812;9.146;2023-02-01T13:42:50;6.80;99.90
7004;DHT22;3542;48.812;9.146;2023-02-01T13:45:25;6.90;99.90
7004;DHT22;3542;48.812;9.146;2023-02-01T13:47:54;6.90;99.90
7004;DHT22;3542;48.812;9.146;2023-02-01T13:50:30;6.80;99.90
7004;DHT22;3542;48.812;9.146;2023-02-01T13:53:05;6.70;99.90
7004;DHT22;3542;48.812;9.146;2023-02-01T13:55:43;6.60;99.90
7004;DHT22;3542;48.812;9.146;2023-02-01T13:58:18;6.60;99.90
7004;DHT22;3542;48.812;9.146;2023-02-01T14:00:44;6.60;99.90
7004;DHT22;3542;48.812;9.146;2023-02-01T14:03:21;6.50;99.90
7004;DHT22;3542;48.812;9.146;2023-02-01T14:08:39;6.40;99.90
7004;DHT22;3542;48.812;9.146;2023-02-01T14:11:04;6.50;99.90
7004;DHT22;3542;48.812;9.146;2023-02-01T14:13:35;6.50;99.90
7004;DHT22;3542;48.812;9.146;2023-02-01T14:21:32;6.50;99.90
7004;DHT22;3542;48.812;9.146;2023-02-01T14:26:46;6.60;99.90
7004;DHT22;3542;48.812;9.146;2023-02-01T14:31:46;6.50;99.90
7004;DHT22;3542;48.812;9.146;2023-02-01T14:34:17;6.50;99.90
7004;DHT22;3542;48.812;9.146;2023-02-01T14:36:57;6.50;99.90
7004;DHT22;3542;48.812;9.146;2023-02-01T14:39:37;6.50;99.90
7004;DHT22;3542;48.812;9.146;2023-02-01T14:42:19;6.50;99.90
7004;DHT22;3542;48.812;9.146;2023-02-01T14:44:47;6.60;99.90
7004;DHT22;3542;48.812;9.146;2023-02-01T14:47:28;6.50;99.90
7004;DHT22;3542;48.812;9.146;2023-02-01T14:53:06;6.40;99.90
7004;DHT22;3542;48.812;9.146;2023-02-01T14:56:00;6.40;99.90
7004;DHT22;3542;48.812;9.146;2023-02-01T15:01:37;6.40;99.90
7004;DHT22;3542;48.812;9.146;2023-02-01T15:04:15;6.40;99.90
7004;DHT22;3542;48.812;9.146;2023-02-01T15:06:51;6.40;99.90
7004;DHT22;3542;48.812;9.146;2023-02-01T15:09:31;6.40;99.90
7004;DHT22;3542;48.812;9.146;2023-02-01T15:14:45;6.40;99.90
7004;DHT22;3542;48.812;9.146;2023-02-01T15:17:30;6.40;99.90
7004;DHT22;3542;48.812;9.146;2023-02-01T15:20:20;6.40;99.90
7004;DHT22;3542;48.812;9.146;2023-02-01T15:22:54;6.40;99.90
7004;DHT22;3542;48.812;9.146;2023-02-01T15:25:28;6.30;99.90
7004;DHT22;3542;48.812;9.146;2023-02-01T15:27:54;6.30;99.90
7004;DHT22;3542;48.812;9.146;2023-02-01T15:30:22;6.30;99.90
7004;DHT22;3542;48.812;9.146;2023-02-01T15:32:49;6.30;99.90
7004;DHT22;3542;48.812;9.146;2023-02-01T15:35:38;6.40;99.90
7004;DHT22;3542;48.812;9.146;2023-02-01T15:41:08;6.30;99.90
7004;DHT22;3542;48.812;9.146;2023-02-01T15:46:22;6.30;99.90
7004;DHT22;3542;48.812;9.146;2023-02-01T15:48:53;6.30;99.90
7004;DHT22;3542;48.812;9.146;2023-02-01T15:51:22;6.30;99.90
7004;DHT22;3542;48.812;9.146;2023-02-01T15:54:01;6.40;99.90
7004;DHT22;3542;48.812;9.146;2023-02-01T15:56:32;6.40;99.90
7004;DHT22;3542;48.812;9.146;2023-02-01T15:59:01;6.30;99.90
7004;DHT22;3542;48.812;9.146;2023-02-01T16:01:27;6.40;99.90
7004;DHT22;3542;48.812;9.146;2023-02-01T16:06:53;6.30;99.90
7004;DHT22;3542;48.812;9.146;2023-02-01T16:09:22;6.30;99.90
7004;DHT22;3542;48.812;9.146;2023-02-01T16:11:56;6.40;99.90
7004;DHT22;3542;48.812;9.146;2023-02-01T16:14:22;6.40;99.90
7004;DHT22;3542;48.812;9.146;2023-02-01T16:16:49;6.40;99.90
7004;DHT22;3542;48.812;9.146;2023-02-01T16:19:14;6.40;99.90
7004;DHT22;3542;48.812;9.146;2023-02-01T16:21:40;6.40;99.90
7004;DHT22;3542;48.812;9.146;2023-02-01T16:24:05;6.40;99.90
7004;DHT22;3542;48.812;9.146;2023-02-01T16:26:32;6.30;99.90
7004;DHT22;3542;48.812;9.146;2023-02-01T16:28:58;6.30;99.90
7004;DHT22;3542;48.812;9.146;2023-02-01T16:31:28;6.30;99.90
7004;DHT22;3542;48.812;9.146;2023-02-01T16:33:54;6.40;99.90
7004;DHT22;3542;48.812;9.146;2023-02-01T16:36:20;6.40;99.90
7004;DHT22;3542;48.812;9.146;2023-02-01T16:38:47;6.40;99.90
7004;DHT22;3542;48.812;9.146;2023-02-01T16:41:18;6.30;99.90
7004;DHT22;3542;48.812;9.146;2023-02-01T16:43:44;6.30;99.90
7004;DHT22;3542;48.812;9.146;2023-02-01T16:46:16;6.40;99.90
7004;DHT22;3542;48.812;9.146;2023-02-01T16:48:46;6.40;99.90
7004;DHT22;3542;48.812;9.146;2023-02-01T16:51:14;6.40;99.90
7004;DHT22;3542;48.812;9.146;2023-02-01T16:53:41;6.40;99.90
7004;DHT22;3542;48.812;9.146;2023-02-01T16:56:19;6.30;99.90
7004;DHT22;3542;48.812;9.146;2023-02-01T16:58:45;6.30;99.90
7004;DHT22;3542;48.812;9.146;2023-02-01T17:01:12;6.30;99.90
7004;DHT22;3542;48.812;9.146;2023-02-01T17:03:38;6.20;99.90
7004;DHT22;3542;48.812;9.146;2023-02-01T17:06:05;6.20;99.90
7004;DHT22;3542;48.812;9.146;2023-02-01T17:08:34;6.20;99.90
7004;DHT22;3542;48.812;9.146;2023-02-01T17:11:01;6.20;99.90
7004;DHT22;3542;48.812;9.146;2023-02-01T17:13:27;6.20;99.90
7004;DHT22;3542;48.812;9.146;2023-02-01T17:16:24;6.20;99.90
7004;DHT22;3542;48.812;9.146;2023-02-01T17:18:57;6.20;99.90
7004;DHT22;3542;48.812;9.146;2023-02-01T17:21:26;6.30;99.90
7004;DHT22;3542;48.812;9.146;2023-02-01T17:23:53;6.30;99.90
7004;DHT22;3542;48.812;9.146;2023-02-01T17:26:18;6.30;99.90
7004;DHT22;3542;48.812;9.146;2023-02-01T17:28:44;6.30;99.90
7004;DHT22;3542;48.812;9.146;2023-02-01T17:31:14;6.30;99.90
7004;DHT22;3542;48.812;9.146;2023-02-01T17:33:43;6.30;99.90
7004;DHT22;3542;48.812;9.146;2023-02-01T17:36:12;6.30;99.90
7004;DHT22;3542;48.812;9.146;2023-02-01T17:38:38;6.30;99.90
7004;DHT22;3542;48.812;9.146;2023-02-01T17:41:04;6.30;99.90
7004;DHT22;3542;48.812;9.146;2023-02-01T17:43:30;6.30;99.90
7004;DHT22;3542;48.812;9.146;2023-02-01T17:46:03;6.30;99.90
7004;DHT22;3542;48.812;9.146;2023-02-01T17:48:29;6.30;99.90
7004;DHT22;3542;48.812;9.146;2023-02-01T17:50:55;6.20;99.90
7004;DHT22;3542;48.812;9.146;2023-02-01T17:53:24;6.20;99.90
7004;DHT22;3542;48.812;9.146;2023-02-01T17:55:51;6.20;99.90
7004;DHT22;3542;48.812;9.146;2023-02-01T17:58:17;6.30;99.90
7004;DHT22;3542;48.812;9.146;2023-02-01T18:00:44;6.20;99.90
7004;DHT22;3542;48.812;9.146;2023-02-01T18:03:19;6.20;99.90
7004;DHT22;3542;48.812;9.146;2023-02-01T18:05:46;6.20;99.90
7004;DHT22;3542;48.812;9.146;2023-02-01T18:08:16;6.20;99.90
7004;DHT22;3542;48.812;9.146;2023-02-01T18:10:42;6.20;99.90
7004;DHT22;3542;48.812;9.146;2023-02-01T18:13:10;6.20;99.90
7004;DHT22;3542;48.812;9.146;2023-02-01T18:15:36;6.20;99.90
7004;DHT22;3542;48.812;9.146;2023-02-01T18:18:03;6.20;99.90
7004;DHT22;3542;48.812;9.146;2023-02-01T18:20:28;6.20;99.90
7004;DHT22;3542;48.812;9.146;2023-02-01T18:22:54;6.20;99.90
7004;DHT22;3542;48.812;9.146;2023-02-01T18:25:25;6.20;99.90
7004;DHT22;3542;48.812;9.146;2023-02-01T18:27:52;6.30;99.90
7004;DHT22;3542;48.812;9.146;2023-02-01T18:30:22;6.20;99.90
7004;DHT22;3542;48.812;9.146;2023-02-01T18:32:48;6.30;99.90
7004;DHT22;3542;48.812;9.146;2023-02-01T18:35:17;6.30;99.90
7004;DHT22;3542;48.812;9.146;2023-02-01T18:37:43;6.20;99.90
7004;DHT22;3542;48.812;9.146;2023-02-01T18:40:16;6.20;99.90
7004;DHT22;3542;48.812;9.146;2023-02-01T18:42:42;6.20;99.90
7004;DHT22;3542;48.812;9.146;2023-02-01T18:45:32;6.20;99.90
7004;DHT22;3542;48.812;9.146;2023-02-01T18:47:59;6.20;99.90
7004;DHT22;3542;48.812;9.146;2023-02-01T18:50:25;6.20;99.90
7004;DHT22;3542;48.812;9.146;2023-02-01T18:52:54;6.30;99.90
7004;DHT22;3542;48.812;9.146;2023-02-01T18:55:20;6.30;99.90
7004;DHT22;3542;48.812;9.146;2023-02-01T18:57:46;6.30;99.90
7004;DHT22;3542;48.812;9.146;2023-02-01T19:00:12;6.30;99.90
7004;DHT22;3542;48.812;9.146;2023-02-01T19:02:38;6.20;99.90
7004;DHT22;3542;48.812;9.146;2023-02-01T19:05:08;6.30;99.90
7004;DHT22;3542;48.812;9.146;2023-02-01T19:07:35;6.30;99.90
7004;DHT22;3542;48.812;9.146;2023-02-01T19:10:01;6.30;99.90
7004;DHT22;3542;48.812;9.146;2023-02-01T19:12:28;6.30;99.90
7004;DHT22;3542;48.812;9.146;2023-02-01T19:14:54;6.30;99.90
7004;DHT22;3542;48.812;9.146;2023-02-01T19:17:20;6.30;99.90
7004;DHT22;3542;48.812;9.146;2023-02-01T19:19:46;6.30;99.90
7004;DHT22;3542;48.812;9.146;2023-02-01T19:22:12;6.30;99.90
7004;DHT22;3542;48.812;9.146;2023-02-01T19:24:38;6.30;99.90
7004;DHT22;3542;48.812;9.146;2023-02-01T19:27:04;6.30;99.90
7004;DHT22;3542;48.812;9.146;2023-02-01T19:29:30;6.30;99.90
7004;DHT22;3542;48.812;9.146;2023-02-01T19:31:56;6.30;99.90
7004;DHT22;3542;48.812;9.146;2023-02-01T19:34:21;6.30;99.90
7004;DHT22;3542;48.812;9.146;2023-02-01T19:36:47;6.20;99.90
7004;DHT22;3542;48.812;9.146;2023-02-01T19:39:13;6.20;99.90
7004;DHT22;3542;48.812;9.146;2023-02-01T19:41:39;6.20;99.90